createdAt,value
2019-04-21T00:01:16.467Z,46.63
2019-04-21T00:07:05.795Z,47.67
2019-04-21T00:11:55.362Z,47.03
2019-04-21T00:16:55.597Z,47.77
2019-04-21T00:22:09.891Z,44.87
2019-04-21T00:27:26.525Z,47.03
2019-04-21T00:32:31.754Z,42.90
2019-04-21T00:37:58.888Z,50.77
2019-04-21T00:43:01.315Z,42.33
2019-04-21T00:48:16.579Z,44.43
2019-04-21T00:53:43.548Z,46.07
2019-04-21T00:58:47.002Z,46.80
2019-04-21T01:04:02.263Z,48.43
2019-04-21T01:09:10.773Z,40.33
2019-04-21T01:14:30.435Z,42.53
2019-04-21T01:19:33.470Z,40.83
2019-04-21T01:24:30.550Z,40.33
2019-04-21T01:29:53.100Z,41.43
2019-04-21T01:35:02.737Z,40.23
2019-04-21T01:40:24.170Z,40.63
2019-04-21T01:45:22.456Z,40.20
2019-04-21T01:50:28.955Z,39.37
2019-04-21T01:56:00.604Z,44.37
2019-04-21T02:01:09.984Z,41.40
2019-04-21T02:06:30.983Z,41.50
2019-04-21T02:11:41.237Z,43.13
2019-04-21T02:16:50.969Z,43.93
2019-04-21T02:21:52.941Z,42.33
2019-04-21T02:27:14.848Z,40.43
2019-04-21T02:32:35.710Z,44.57
2019-04-21T02:38:01.665Z,41.77
2019-04-21T02:43:06.542Z,43.10
2019-04-21T02:58:34.413Z,38.57
2019-04-21T03:09:16.072Z,40.93
2019-04-21T03:14:25.004Z,40.87
2019-04-21T03:19:28.421Z,40.23
2019-04-21T03:24:46.307Z,43.57
2019-04-21T03:40:14.982Z,39.27
2019-04-21T03:45:25.034Z,39.03
2019-04-21T03:50:27.759Z,40.70
2019-04-21T04:01:00.000Z,39.97
2019-04-21T04:06:09.633Z,41.00
2019-04-21T04:11:23.057Z,39.23
2019-04-21T04:21:37.207Z,38.63
2019-04-21T04:32:18.727Z,40.90
2019-04-21T04:52:38.451Z,37.73
2019-04-21T05:08:21.802Z,40.87
2019-04-21T05:13:26.478Z,36.00
2019-04-21T05:18:50.322Z,39.10
2019-04-21T05:23:37.702Z,37.27
2019-04-21T05:28:40.631Z,38.37
2019-04-21T05:34:26.021Z,43.90
2019-04-21T05:39:33.439Z,36.17
2019-04-21T05:44:59.825Z,44.47
2019-04-21T05:49:55.484Z,42.13
2019-04-21T05:55:10.995Z,38.40
2019-04-21T06:00:23.534Z,35.23
2019-04-21T06:05:47.334Z,37.30
2019-04-21T06:10:48.833Z,33.53
2019-04-21T06:21:05.712Z,31.33
2019-04-21T06:26:44.912Z,29.30
2019-04-21T06:31:58.897Z,29.30
2019-04-21T06:36:51.939Z,29.27
2019-04-21T06:41:55.692Z,28.93
2019-04-21T06:47:06.375Z,24.43
2019-04-21T06:52:42.314Z,25.57
2019-04-21T06:57:29.645Z,23.33
2019-04-21T07:03:06.217Z,24.30
2019-04-21T07:08:09.228Z,26.37
2019-04-21T07:12:59.264Z,25.60
2019-04-21T07:18:11.008Z,25.80
2019-04-21T07:23:24.077Z,22.33
2019-04-21T07:28:45.976Z,20.53
2019-04-21T07:38:57.281Z,19.73
2019-04-21T07:44:00.268Z,21.63
2019-04-21T07:49:14.309Z,17.70
2019-04-21T07:54:34.205Z,19.20
2019-04-21T07:59:45.928Z,20.70
2019-04-21T08:04:52.801Z,18.00
2019-04-21T08:09:51.037Z,19.73
2019-04-21T08:15:11.257Z,20.50
2019-04-21T08:20:14.304Z,17.37
2019-04-21T08:25:19.584Z,17.03
2019-04-21T08:36:14.432Z,16.70
2019-04-21T08:40:57.435Z,17.13
2019-04-21T08:46:11.271Z,20.07
2019-04-21T08:56:41.365Z,19.90
2019-04-21T09:01:48.889Z,16.20
2019-04-21T09:07:04.611Z,21.53
2019-04-21T09:12:04.437Z,15.83
2019-04-21T09:17:15.291Z,15.10
2019-04-21T09:22:30.800Z,19.27
2019-04-21T09:27:37.836Z,15.00
2019-04-21T09:32:34.838Z,17.83
2019-04-21T09:37:51.344Z,16.67
2019-04-21T09:42:59.480Z,12.77
2019-04-21T09:48:07.950Z,19.87
2019-04-21T09:53:26.329Z,15.97
2019-04-21T09:58:34.633Z,15.40
2019-04-21T10:03:43.455Z,13.67
2019-04-21T10:08:51.848Z,13.63
2019-04-21T10:13:59.182Z,11.40
2019-04-21T10:19:11.018Z,15.03
2019-04-21T10:24:20.165Z,15.37
2019-04-21T10:29:31.257Z,12.37
2019-04-21T10:34:39.144Z,13.73
2019-04-21T10:39:51.479Z,13.93
2019-04-21T10:45:01.425Z,11.27
2019-04-21T10:50:12.935Z,13.27
2019-04-21T10:55:41.497Z,13.27
2019-04-21T11:00:36.410Z,13.27
2019-04-21T11:05:45.019Z,13.70
2019-04-21T11:10:54.046Z,11.23
2019-04-21T11:16:03.424Z,13.17
2019-04-21T11:21:13.074Z,11.50
2019-04-21T11:26:24.180Z,11.50
2019-04-21T11:31:33.418Z,12.67
2019-04-21T11:36:43.917Z,10.73
2019-04-21T11:41:53.951Z,9.20
2019-04-21T11:47:04.906Z,9.10
2019-04-21T11:52:13.253Z,12.50
2019-04-21T11:57:27.872Z,10.27
2019-04-21T12:02:33.664Z,9.33
2019-04-21T12:07:41.480Z,8.33
2019-04-21T12:12:51.549Z,10.80
2019-04-21T12:17:59.623Z,10.80
2019-04-21T12:23:14.405Z,11.97
2019-04-21T12:28:24.107Z,10.00
2019-04-21T12:33:49.792Z,8.67
2019-04-21T12:39:03.004Z,10.17
2019-04-21T12:44:22.569Z,10.37
2019-04-21T12:49:32.140Z,8.13
2019-04-21T12:54:45.858Z,8.23
2019-04-21T12:59:53.192Z,13.13
2019-04-21T13:05:03.883Z,9.53
2019-04-21T13:10:16.035Z,8.27
2019-04-21T13:15:25.699Z,10.03
2019-04-21T13:20:33.979Z,9.10
2019-04-21T13:25:43.689Z,9.37
2019-04-21T13:30:53.943Z,8.97
2019-04-21T13:36:02.843Z,8.20
2019-04-21T13:41:31.423Z,8.77
2019-04-21T13:46:27.090Z,11.17
2019-04-21T13:51:36.075Z,8.73
2019-04-21T13:56:44.895Z,8.33
2019-04-21T14:01:53.982Z,10.13
2019-04-21T14:07:02.900Z,8.17
2019-04-21T14:12:13.752Z,9.17
2019-04-21T14:17:22.496Z,8.73
2019-04-21T14:22:32.319Z,8.00
2019-04-21T14:27:40.340Z,10.83
2019-04-21T14:32:48.181Z,7.07
2019-04-21T14:37:56.557Z,11.60
2019-04-21T14:43:06.092Z,8.43
2019-04-21T14:48:16.963Z,6.97
2019-04-21T14:53:28.110Z,9.50
2019-04-21T14:58:39.229Z,8.97
2019-04-21T15:03:47.891Z,8.43
2019-04-21T15:08:57.601Z,7.73
2019-04-21T15:14:06.172Z,7.77
2019-04-21T15:19:14.799Z,6.60
2019-04-21T15:24:26.627Z,7.10
2019-04-21T15:29:35.094Z,8.27
2019-04-21T15:34:44.387Z,7.27
2019-04-21T15:39:53.085Z,4.83
2019-04-21T15:45:03.468Z,5.87
2019-04-21T15:50:16.334Z,5.43
2019-04-21T15:55:39.022Z,6.47
2019-04-21T16:00:49.993Z,5.77
2019-04-21T16:05:59.475Z,7.60
2019-04-21T16:11:10.848Z,9.20
2019-04-21T16:16:20.229Z,7.03
2019-04-21T16:21:29.244Z,7.47
2019-04-21T16:26:38.432Z,10.40
2019-04-21T16:31:47.024Z,8.13
2019-04-21T16:36:56.365Z,6.90
2019-04-21T16:42:08.352Z,12.30
2019-04-21T16:47:17.262Z,7.33
2019-04-21T16:52:27.990Z,8.20
2019-04-21T16:57:37.740Z,7.23
2019-04-21T17:02:48.299Z,6.60
2019-04-21T17:07:57.995Z,6.30
2019-04-21T17:13:06.380Z,6.47
2019-04-21T17:18:36.136Z,15.43
2019-04-21T17:23:27.327Z,10.23
2019-04-21T17:28:36.396Z,7.63
2019-04-21T17:33:47.182Z,7.40
2019-04-21T17:38:55.731Z,10.40
2019-04-21T17:44:04.473Z,7.10
2019-04-21T17:49:12.825Z,9.87
2019-04-21T17:54:33.210Z,7.90
2019-04-21T18:00:07.117Z,8.57
2019-04-21T18:05:07.302Z,9.43
2019-04-21T18:10:27.739Z,15.47
2019-04-21T18:15:21.959Z,12.20
2019-04-21T18:20:23.928Z,8.90
2019-04-21T18:25:44.863Z,12.00
2019-04-21T18:30:52.289Z,10.93
2019-04-21T18:36:02.972Z,15.67
2019-04-21T18:41:15.384Z,15.33
2019-04-21T18:46:56.829Z,14.47
2019-04-21T18:51:57.148Z,17.07
2019-04-21T18:57:10.012Z,13.90
2019-04-21T19:02:14.969Z,13.57
2019-04-21T19:07:45.511Z,13.37
2019-04-21T19:13:20.137Z,17.77
2019-04-21T19:23:12.566Z,15.03
2019-04-21T19:28:25.145Z,17.87
2019-04-21T19:33:30.075Z,18.97
2019-04-21T19:38:38.389Z,13.70
2019-04-21T19:44:01.487Z,14.10
2019-04-21T19:49:10.962Z,12.50
2019-04-21T19:54:06.385Z,13.10
2019-04-21T19:59:12.863Z,10.80
2019-04-21T20:04:16.801Z,13.00
2019-04-21T20:09:39.555Z,12.23
2019-04-21T20:14:59.303Z,13.73
2019-04-21T20:19:56.277Z,15.77
2019-04-21T20:25:12.659Z,13.50
2019-04-21T20:30:38.762Z,13.53
2019-04-21T20:35:59.311Z,13.93
2019-04-21T20:40:52.700Z,12.77
2019-04-21T20:46:07.932Z,10.83
2019-04-21T20:51:23.583Z,10.53
2019-04-21T20:56:27.372Z,14.73
2019-04-21T21:01:43.239Z,13.03
2019-04-21T21:06:54.121Z,11.13
2019-04-21T21:12:19.251Z,21.13
2019-04-21T21:17:25.429Z,25.03
2019-04-21T21:22:18.050Z,24.73
2019-04-21T21:27:35.184Z,19.63
2019-04-21T21:32:44.907Z,18.07
2019-04-21T21:37:55.282Z,16.37
2019-04-21T21:42:49.288Z,13.23
2019-04-21T21:48:18.776Z,11.43
2019-04-21T21:53:18.723Z,13.37
2019-04-21T21:58:26.437Z,14.23
2019-04-21T22:03:35.318Z,11.47
2019-04-21T22:08:40.550Z,14.00
2019-04-21T22:13:56.697Z,15.90
2019-04-21T22:19:16.890Z,18.67
2019-04-21T22:24:20.332Z,19.00
2019-04-21T22:29:16.228Z,17.37
2019-04-21T22:34:31.441Z,22.10
2019-04-21T22:39:50.985Z,20.33
2019-04-21T22:44:43.244Z,22.40
2019-04-21T23:08:48.095Z,24.60
2019-04-21T23:14:03.763Z,21.67
2019-04-21T23:19:23.705Z,27.27
2019-04-21T23:24:42.144Z,28.10
2019-04-21T23:30:08.370Z,27.33
2019-04-21T23:34:40.707Z,27.73
2019-04-21T23:39:52.225Z,25.60
2019-04-21T23:45:01.330Z,26.03
2019-04-21T23:50:23.560Z,27.27
2019-04-21T23:55:23.116Z,27.00
